sensor_id;sensor_type;location;lat;lon;timestamp;pressure;altitude;pressure_sealevel;temperature;humidity
20710;BME280;10516;51.518;9.864;2023-09-18T00:01:36;98305.00;;;19.53;77.33
20710;BME280;10516;51.518;9.864;2023-09-18T00:04:05;98282.06;;;19.33;77.78
20710;BME280;10516;51.518;9.864;2023-09-18T00:06:30;98280.00;;;19.30;77.37
20710;BME280;10516;51.518;9.864;2023-09-18T00:08:55;98297.84;;;19.49;77.32
20710;BME280;10516;51.518;9.864;2023-09-18T00:11:21;98287.19;;;19.52;77.00
20710;BME280;10516;51.518;9.864;2023-09-18T00:13:47;98297.19;;;19.69;76.71
20710;BME280;10516;51.518;9.864;2023-09-18T00:16:12;98267.59;;;19.47;76.80
20710;BME280;10516;51.518;9.864;2023-09-18T00:18:38;98279.34;;;19.51;77.17
20710;BME280;10516;51.518;9.864;2023-09-18T00:21:03;98276.66;;;19.42;77.10
20710;BME280;10516;51.518;9.864;2023-09-18T00:23:29;98278.41;;;19.38;77.65
20710;BME280;10516;51.518;9.864;2023-09-18T00:25:55;98262.16;;;19.21;77.51
20710;BME280;10516;51.518;9.864;2023-09-18T00:28:20;98281.31;;;19.41;77.54
20710;BME280;10516;51.518;9.864;2023-09-18T00:30:49;98264.88;;;19.38;77.28
20710;BME280;10516;51.518;9.864;2023-09-18T00:33:15;98272.06;;;19.42;77.45
20710;BME280;10516;51.518;9.864;2023-09-18T00:35:45;98228.56;;;19.05;77.88
20710;BME280;10516;51.518;9.864;2023-09-18T00:38:11;98230.16;;;19.23;77.29
20710;BME280;10516;51.518;9.864;2023-09-18T00:40:36;98239.72;;;19.29;77.21
20710;BME280;10516;51.518;9.864;2023-09-18T00:43:01;98243.69;;;19.31;77.33
20710;BME280;10516;51.518;9.864;2023-09-18T00:45:27;98223.97;;;19.14;77.25
20710;BME280;10516;51.518;9.864;2023-09-18T00:47:53;98244.00;;;19.30;77.25
20710;BME280;10516;51.518;9.864;2023-09-18T00:50:19;98208.84;;;19.21;77.23
20710;BME280;10516;51.518;9.864;2023-09-18T00:52:46;98219.34;;;19.23;77.56
20710;BME280;10516;51.518;9.864;2023-09-18T00:55:12;98209.94;;;19.20;77.52
20710;BME280;10516;51.518;9.864;2023-09-18T00:57:38;98207.44;;;19.15;77.36
20710;BME280;10516;51.518;9.864;2023-09-18T01:00:05;98200.09;;;19.07;77.46
20710;BME280;10516;51.518;9.864;2023-09-18T01:02:31;98116.75;;;18.49;77.67
20710;BME280;10516;51.518;9.864;2023-09-18T01:04:57;98210.59;;;18.92;78.23
20710;BME280;10516;51.518;9.864;2023-09-18T01:07:23;98197.88;;;18.92;78.32
20710;BME280;10516;51.518;9.864;2023-09-18T01:09:48;98201.22;;;18.98;78.24
20710;BME280;10516;51.518;9.864;2023-09-18T01:15:16;98164.78;;;18.95;77.76
20710;BME280;10516;51.518;9.864;2023-09-18T01:17:43;98176.22;;;19.01;78.14
20710;BME280;10516;51.518;9.864;2023-09-18T01:20:10;98160.81;;;18.93;78.01
20710;BME280;10516;51.518;9.864;2023-09-18T01:22:35;98186.88;;;19.06;77.90
20710;BME280;10516;51.518;9.864;2023-09-18T01:25:01;98164.31;;;18.93;78.38
20710;BME280;10516;51.518;9.864;2023-09-18T01:27:27;98173.38;;;18.97;78.41
20710;BME280;10516;51.518;9.864;2023-09-18T01:29:52;98183.38;;;19.05;78.32
20710;BME280;10516;51.518;9.864;2023-09-18T01:32:19;98173.53;;;19.01;78.40
20710;BME280;10516;51.518;9.864;2023-09-18T01:34:47;98124.06;;;18.66;78.53
20710;BME280;10516;51.518;9.864;2023-09-18T01:37:14;98168.78;;;18.98;78.46
20710;BME280;10516;51.518;9.864;2023-09-18T01:39:41;98134.06;;;18.74;78.28
20710;BME280;10516;51.518;9.864;2023-09-18T01:42:07;98115.47;;;18.64;78.64
20710;BME280;10516;51.518;9.864;2023-09-18T01:44:36;98118.50;;;18.71;78.56
20710;BME280;10516;51.518;9.864;2023-09-18T01:47:06;98103.38;;;18.70;78.39
20710;BME280;10516;51.518;9.864;2023-09-18T01:49:34;98148.84;;;18.94;78.58
20710;BME280;10516;51.518;9.864;2023-09-18T01:52:00;98142.22;;;18.91;78.77
20710;BME280;10516;51.518;9.864;2023-09-18T01:54:26;98149.50;;;18.99;78.38
20710;BME280;10516;51.518;9.864;2023-09-18T01:56:52;98132.97;;;18.92;78.42
20710;BME280;10516;51.518;9.864;2023-09-18T01:59:22;98153.03;;;18.91;78.75
20710;BME280;10516;51.518;9.864;2023-09-18T02:01:48;98131.56;;;18.69;78.71
20710;BME280;10516;51.518;9.864;2023-09-18T02:04:14;98137.59;;;18.75;78.75
20710;BME280;10516;51.518;9.864;2023-09-18T02:06:39;98150.31;;;18.83;78.62
20710;BME280;10516;51.518;9.864;2023-09-18T02:09:07;98151.09;;;18.83;78.68
20710;BME280;10516;51.518;9.864;2023-09-18T02:11:39;98128.19;;;18.72;78.94
20710;BME280;10516;51.518;9.864;2023-09-18T02:14:05;98132.19;;;18.66;78.70
20710;BME280;10516;51.518;9.864;2023-09-18T02:16:34;98122.50;;;18.65;79.08
20710;BME280;10516;51.518;9.864;2023-09-18T02:19:01;98122.31;;;18.70;78.62
20710;BME280;10516;51.518;9.864;2023-09-18T02:21:26;98135.19;;;18.73;79.00
20710;BME280;10516;51.518;9.864;2023-09-18T02:23:53;98134.25;;;18.78;78.65
20710;BME280;10516;51.518;9.864;2023-09-18T02:26:23;98140.75;;;18.85;78.25
20710;BME280;10516;51.518;9.864;2023-09-18T02:28:51;98117.22;;;18.68;78.56
20710;BME280;10516;51.518;9.864;2023-09-18T02:31:16;98114.22;;;18.61;78.66
20710;BME280;10516;51.518;9.864;2023-09-18T02:33:43;98108.00;;;18.61;78.62
20710;BME280;10516;51.518;9.864;2023-09-18T02:36:08;98111.34;;;18.58;78.91
20710;BME280;10516;51.518;9.864;2023-09-18T02:38:34;98097.66;;;18.46;78.90
20710;BME280;10516;51.518;9.864;2023-09-18T02:41:00;98127.09;;;18.64;78.89
20710;BME280;10516;51.518;9.864;2023-09-18T02:43:25;98077.91;;;18.28;79.36
20710;BME280;10516;51.518;9.864;2023-09-18T02:45:51;98118.50;;;18.62;78.92
20710;BME280;10516;51.518;9.864;2023-09-18T02:48:17;98105.63;;;18.51;79.19
20710;BME280;10516;51.518;9.864;2023-09-18T02:50:43;98105.16;;;18.57;79.43
20710;BME280;10516;51.518;9.864;2023-09-18T02:53:21;98114.53;;;18.60;79.05
20710;BME280;10516;51.518;9.864;2023-09-18T02:55:50;98117.38;;;18.55;79.41
20710;BME280;10516;51.518;9.864;2023-09-18T02:58:16;98103.34;;;18.36;79.87
20710;BME280;10516;51.518;9.864;2023-09-18T03:00:48;98111.94;;;18.38;79.82
20710;BME280;10516;51.518;9.864;2023-09-18T03:03:14;98112.63;;;18.52;79.22
20710;BME280;10516;51.518;9.864;2023-09-18T03:05:40;98095.59;;;18.34;79.68
20710;BME280;10516;51.518;9.864;2023-09-18T03:08:07;98081.88;;;18.22;80.27
20710;BME280;10516;51.518;9.864;2023-09-18T03:10:36;98083.69;;;18.52;79.20
20710;BME280;10516;51.518;9.864;2023-09-18T03:13:03;98085.91;;;18.59;78.63
20710;BME280;10516;51.518;9.864;2023-09-18T03:15:30;98084.81;;;18.60;78.53
20710;BME280;10516;51.518;9.864;2023-09-18T03:17:59;98087.19;;;18.44;79.14
20710;BME280;10516;51.518;9.864;2023-09-18T03:20:29;98072.69;;;18.40;79.48
20710;BME280;10516;51.518;9.864;2023-09-18T03:22:57;98057.78;;;18.51;78.68
20710;BME280;10516;51.518;9.864;2023-09-18T03:25:23;98061.91;;;18.49;78.76
20710;BME280;10516;51.518;9.864;2023-09-18T03:27:53;98063.66;;;18.45;78.97
20710;BME280;10516;51.518;9.864;2023-09-18T03:30:20;98042.63;;;18.33;79.55
20710;BME280;10516;51.518;9.864;2023-09-18T03:32:46;98051.88;;;18.41;79.42
20710;BME280;10516;51.518;9.864;2023-09-18T03:35:13;98037.41;;;18.37;79.23
20710;BME280;10516;51.518;9.864;2023-09-18T03:37:45;98034.41;;;18.47;79.10
20710;BME280;10516;51.518;9.864;2023-09-18T03:40:11;98029.94;;;18.42;78.87
20710;BME280;10516;51.518;9.864;2023-09-18T03:42:36;98033.59;;;18.46;79.17
20710;BME280;10516;51.518;9.864;2023-09-18T03:45:02;98012.13;;;18.24;79.79
20710;BME280;10516;51.518;9.864;2023-09-18T03:47:28;98042.03;;;18.45;79.32
20710;BME280;10516;51.518;9.864;2023-09-18T03:49:53;98024.19;;;18.35;79.62
20710;BME280;10516;51.518;9.864;2023-09-18T03:52:18;98012.44;;;18.31;79.60
20710;BME280;10516;51.518;9.864;2023-09-18T03:54:44;97996.72;;;18.16;79.76
20710;BME280;10516;51.518;9.864;2023-09-18T03:57:09;97994.06;;;17.43;82.49
20710;BME280;10516;51.518;9.864;2023-09-18T03:59:34;97959.69;;;17.82;81.11
20710;BME280;10516;51.518;9.864;2023-09-18T04:02:00;98021.97;;;18.29;80.51
20710;BME280;10516;51.518;9.864;2023-09-18T04:04:25;98010.38;;;18.20;80.03
20710;BME280;10516;51.518;9.864;2023-09-18T04:06:50;98012.44;;;18.31;80.35
20710;BME280;10516;51.518;9.864;2023-09-18T04:09:16;97987.31;;;18.31;79.61
20710;BME280;10516;51.518;9.864;2023-09-18T04:11:43;97948.59;;;17.67;80.52
20710;BME280;10516;51.518;9.864;2023-09-18T04:14:08;97963.34;;;18.21;80.15
20710;BME280;10516;51.518;9.864;2023-09-18T04:16:34;97986.69;;;18.34;79.88
20710;BME280;10516;51.518;9.864;2023-09-18T04:19:03;97982.41;;;18.24;79.92
20710;BME280;10516;51.518;9.864;2023-09-18T04:21:29;97925.25;;;17.88;80.56
20710;BME280;10516;51.518;9.864;2023-09-18T04:23:55;97969.09;;;18.19;79.96
20710;BME280;10516;51.518;9.864;2023-09-18T04:26:26;97984.34;;;18.24;80.31
20710;BME280;10516;51.518;9.864;2023-09-18T04:29:01;97970.81;;;18.24;80.42
20710;BME280;10516;51.518;9.864;2023-09-18T04:31:27;97977.81;;;18.25;80.28
20710;BME280;10516;51.518;9.864;2023-09-18T04:33:53;97997.19;;;18.27;80.26
20710;BME280;10516;51.518;9.864;2023-09-18T04:36:19;97990.38;;;18.04;81.13
20710;BME280;10516;51.518;9.864;2023-09-18T04:38:45;98004.19;;;18.28;80.68
20710;BME280;10516;51.518;9.864;2023-09-18T04:41:10;97989.91;;;18.02;81.44
20710;BME280;10516;51.518;9.864;2023-09-18T04:43:37;97989.72;;;17.89;82.31
20710;BME280;10516;51.518;9.864;2023-09-18T04:46:03;97990.50;;;17.90;82.50
20710;BME280;10516;51.518;9.864;2023-09-18T04:48:32;97981.31;;;18.17;81.05
20710;BME280;10516;51.518;9.864;2023-09-18T04:50:58;97983.22;;;18.25;80.49
20710;BME280;10516;51.518;9.864;2023-09-18T04:53:24;97978.44;;;18.05;81.31
20710;BME280;10516;51.518;9.864;2023-09-18T04:55:50;97975.25;;;17.85;82.82
20710;BME280;10516;51.518;9.864;2023-09-18T04:58:17;97918.91;;;17.19;85.79
20710;BME280;10516;51.518;9.864;2023-09-18T05:00:43;97953.31;;;17.61;83.40
20710;BME280;10516;51.518;9.864;2023-09-18T05:03:12;97981.94;;;17.88;83.25
20710;BME280;10516;51.518;9.864;2023-09-18T05:05:37;97967.50;;;17.92;84.15
20710;BME280;10516;51.518;9.864;2023-09-18T05:08:05;97945.69;;;17.63;84.20
20710;BME280;10516;51.518;9.864;2023-09-18T05:10:33;97955.69;;;17.71;85.31
20710;BME280;10516;51.518;9.864;2023-09-18T05:12:58;97937.44;;;17.51;86.67
20710;BME280;10516;51.518;9.864;2023-09-18T05:15:27;97909.13;;;17.23;87.69
20710;BME280;10516;51.518;9.864;2023-09-18T05:17:55;97931.53;;;17.49;86.59
20710;BME280;10516;51.518;9.864;2023-09-18T05:20:23;97943.81;;;17.64;87.83
20710;BME280;10516;51.518;9.864;2023-09-18T05:22:50;97930.78;;;17.91;82.87
20710;BME280;10516;51.518;9.864;2023-09-18T05:25:18;97912.03;;;17.61;85.66
20710;BME280;10516;51.518;9.864;2023-09-18T05:27:44;97919.19;;;17.57;87.34
20710;BME280;10516;51.518;9.864;2023-09-18T05:32:36;97903.97;;;17.95;81.88
20710;BME280;10516;51.518;9.864;2023-09-18T05:35:02;97923.16;;;17.76;85.60
20710;BME280;10516;51.518;9.864;2023-09-18T05:37:31;97915.06;;;18.02;82.86
20710;BME280;10516;51.518;9.864;2023-09-18T05:39:57;97918.88;;;18.10;82.53
20710;BME280;10516;51.518;9.864;2023-09-18T05:42:22;97912.66;;;18.09;83.79
20710;BME280;10516;51.518;9.864;2023-09-18T05:44:47;97916.97;;;18.10;83.65
20710;BME280;10516;51.518;9.864;2023-09-18T05:47:13;97904.38;;;18.31;81.59
20710;BME280;10516;51.518;9.864;2023-09-18T05:49:38;97903.41;;;18.36;80.84
20710;BME280;10516;51.518;9.864;2023-09-18T05:52:03;97886.59;;;18.22;83.50
20710;BME280;10516;51.518;9.864;2023-09-18T05:54:29;97879.44;;;18.34;80.83
20710;BME280;10516;51.518;9.864;2023-09-18T05:56:54;97883.53;;;18.40;80.42
20710;BME280;10516;51.518;9.864;2023-09-18T05:59:20;97865.78;;;18.22;82.67
20710;BME280;10516;51.518;9.864;2023-09-18T06:01:45;97878.78;;;18.29;82.41
20710;BME280;10516;51.518;9.864;2023-09-18T06:04:10;97875.50;;;18.15;85.19
20710;BME280;10516;51.518;9.864;2023-09-18T06:06:38;97865.72;;;18.39;81.79
20710;BME280;10516;51.518;9.864;2023-09-18T06:09:03;97839.53;;;18.31;82.19
20710;BME280;10516;51.518;9.864;2023-09-18T06:11:28;97831.09;;;18.33;81.39
20710;BME280;10516;51.518;9.864;2023-09-18T06:13:54;97859.00;;;18.62;81.37
20710;BME280;10516;51.518;9.864;2023-09-18T06:16:19;97834.44;;;18.47;81.08
20710;BME280;10516;51.518;9.864;2023-09-18T06:18:45;97822.81;;;18.46;81.76
20710;BME280;10516;51.518;9.864;2023-09-18T06:21:10;97854.31;;;18.80;81.58
20710;BME280;10516;51.518;9.864;2023-09-18T06:23:36;97852.44;;;18.72;81.47
20710;BME280;10516;51.518;9.864;2023-09-18T06:26:01;97841.34;;;18.65;81.63
20710;BME280;10516;51.518;9.864;2023-09-18T06:28:26;97831.81;;;18.59;81.86
20710;BME280;10516;51.518;9.864;2023-09-18T06:30:52;97846.91;;;18.68;82.08
20710;BME280;10516;51.518;9.864;2023-09-18T06:33:19;97840.19;;;18.75;81.81
20710;BME280;10516;51.518;9.864;2023-09-18T06:35:44;97860.25;;;18.74;82.12
20710;BME280;10516;51.518;9.864;2023-09-18T06:38:10;97840.91;;;18.54;84.26
20710;BME280;10516;51.518;9.864;2023-09-18T06:40:37;97809.16;;;18.43;83.35
20710;BME280;10516;51.518;9.864;2023-09-18T06:43:04;97824.69;;;18.63;82.43
20710;BME280;10516;51.518;9.864;2023-09-18T06:45:29;97802.59;;;18.52;82.32
20710;BME280;10516;51.518;9.864;2023-09-18T06:47:55;97829.03;;;18.47;83.73
20710;BME280;10516;51.518;9.864;2023-09-18T06:50:20;97859.53;;;18.85;82.55
20710;BME280;10516;51.518;9.864;2023-09-18T06:52:46;97854.00;;;18.82;83.37
20710;BME280;10516;51.518;9.864;2023-09-18T06:55:11;97864.75;;;18.90;82.93
20710;BME280;10516;51.518;9.864;2023-09-18T06:57:37;97858.44;;;18.86;81.62
20710;BME280;10516;51.518;9.864;2023-09-18T07:00:03;97852.44;;;18.72;82.67
20710;BME280;10516;51.518;9.864;2023-09-18T07:02:30;97871.31;;;18.89;84.08
20710;BME280;10516;51.518;9.864;2023-09-18T07:04:55;97880.25;;;19.10;81.56
20710;BME280;10516;51.518;9.864;2023-09-18T07:07:20;97878.06;;;19.04;82.06
20710;BME280;10516;51.518;9.864;2023-09-18T07:09:53;97885.00;;;19.13;82.56
20710;BME280;10516;51.518;9.864;2023-09-18T07:12:18;97882.63;;;19.12;83.51
20710;BME280;10516;51.518;9.864;2023-09-18T07:14:48;97838.28;;;19.04;82.63
20710;BME280;10516;51.518;9.864;2023-09-18T07:17:13;97869.31;;;19.27;82.19
20710;BME280;10516;51.518;9.864;2023-09-18T07:19:39;97869.31;;;19.27;81.75
20710;BME280;10516;51.518;9.864;2023-09-18T07:22:04;97886.13;;;19.41;81.74
20710;BME280;10516;51.518;9.864;2023-09-18T07:24:29;97896.16;;;19.41;82.66
20710;BME280;10516;51.518;9.864;2023-09-18T07:26:55;97894.03;;;19.47;81.74
20710;BME280;10516;51.518;9.864;2023-09-18T07:29:22;97879.41;;;19.48;81.76
20710;BME280;10516;51.518;9.864;2023-09-18T07:31:50;97889.31;;;19.64;81.64
20710;BME280;10516;51.518;9.864;2023-09-18T07:34:16;97877.16;;;19.50;82.44
20710;BME280;10516;51.518;9.864;2023-09-18T07:36:42;97887.50;;;19.68;81.46
20710;BME280;10516;51.518;9.864;2023-09-18T07:39:09;97874.97;;;19.64;81.85
20710;BME280;10516;51.518;9.864;2023-09-18T07:41:34;97895.53;;;19.85;80.63
20710;BME280;10516;51.518;9.864;2023-09-18T07:43:59;97879.28;;;19.65;81.63
20710;BME280;10516;51.518;9.864;2023-09-18T07:46:25;97879.66;;;19.75;80.98
20710;BME280;10516;51.518;9.864;2023-09-18T07:48:51;97914.06;;;19.95;80.28
20710;BME280;10516;51.518;9.864;2023-09-18T07:51:16;97914.34;;;20.02;79.63
20710;BME280;10516;51.518;9.864;2023-09-18T07:53:42;97927.53;;;20.04;79.31
20710;BME280;10516;51.518;9.864;2023-09-18T07:56:08;97913.53;;;20.02;79.36
20710;BME280;10516;51.518;9.864;2023-09-18T07:58:34;97918.84;;;19.98;79.75
20710;BME280;10516;51.518;9.864;2023-09-18T08:01:03;97915.38;;;20.10;79.55
20710;BME280;10516;51.518;9.864;2023-09-18T08:03:30;97917.28;;;20.09;79.45
20710;BME280;10516;51.518;9.864;2023-09-18T08:05:55;97894.75;;;19.97;79.84
20710;BME280;10516;51.518;9.864;2023-09-18T08:08:21;97910.53;;;20.15;79.31
20710;BME280;10516;51.518;9.864;2023-09-18T08:10:49;97857.00;;;19.80;79.74
20710;BME280;10516;51.518;9.864;2023-09-18T08:13:15;97890.53;;;20.08;79.31
20710;BME280;10516;51.518;9.864;2023-09-18T08:15:41;97901.72;;;20.18;79.36
20710;BME280;10516;51.518;9.864;2023-09-18T08:18:07;97878.78;;;20.04;79.57
20710;BME280;10516;51.518;9.864;2023-09-18T08:20:32;97842.59;;;19.88;79.23
20710;BME280;10516;51.518;9.864;2023-09-18T08:22:58;97904.38;;;20.27;78.93
20710;BME280;10516;51.518;9.864;2023-09-18T08:25:26;97920.00;;;20.30;79.16
20710;BME280;10516;51.518;9.864;2023-09-18T08:27:52;97912.78;;;20.34;79.16
20710;BME280;10516;51.518;9.864;2023-09-18T08:30:18;97924.75;;;20.33;79.12
20710;BME280;10516;51.518;9.864;2023-09-18T08:32:46;97868.84;;;20.08;79.23
20710;BME280;10516;51.518;9.864;2023-09-18T08:35:12;97862.44;;;20.12;78.86
20710;BME280;10516;51.518;9.864;2023-09-18T08:37:39;97898.91;;;20.48;78.24
20710;BME280;10516;51.518;9.864;2023-09-18T08:40:05;97897.66;;;20.45;78.07
20710;BME280;10516;51.518;9.864;2023-09-18T08:42:35;97915.53;;;20.58;77.85
20710;BME280;10516;51.518;9.864;2023-09-18T08:45:01;97917.25;;;20.63;77.72
20710;BME280;10516;51.518;9.864;2023-09-18T08:47:28;97921.41;;;20.60;76.88
20710;BME280;10516;51.518;9.864;2023-09-18T08:49:55;97928.81;;;20.72;77.37
20710;BME280;10516;51.518;9.864;2023-09-18T08:52:23;97925.63;;;20.70;76.34
20710;BME280;10516;51.518;9.864;2023-09-18T08:54:49;97927.53;;;20.69;76.22
20710;BME280;10516;51.518;9.864;2023-09-18T08:57:16;97931.06;;;20.70;75.79
20710;BME280;10516;51.518;9.864;2023-09-18T08:59:42;97922.56;;;20.71;75.70
20710;BME280;10516;51.518;9.864;2023-09-18T09:02:09;97939.34;;;20.85;75.80
20710;BME280;10516;51.518;9.864;2023-09-18T09:04:37;97925.06;;;20.76;75.90
20710;BME280;10516;51.518;9.864;2023-09-18T09:07:03;97924.16;;;20.72;75.63
20710;BME280;10516;51.518;9.864;2023-09-18T09:09:29;97935.78;;;20.73;75.59
20710;BME280;10516;51.518;9.864;2023-09-18T09:11:56;97927.19;;;20.71;75.55
20710;BME280;10516;51.518;9.864;2023-09-18T09:14:22;97881.94;;;20.27;74.93
20710;BME280;10516;51.518;9.864;2023-09-18T09:16:53;97929.56;;;20.60;74.76
20710;BME280;10516;51.518;9.864;2023-09-18T09:19:31;97920.50;;;20.56;74.31
20710;BME280;10516;51.518;9.864;2023-09-18T09:21:58;97906.94;;;20.44;74.70
20710;BME280;10516;51.518;9.864;2023-09-18T09:24:56;97913.38;;;20.52;74.27
20710;BME280;10516;51.518;9.864;2023-09-18T09:27:21;97922.66;;;20.51;74.11
20710;BME280;10516;51.518;9.864;2023-09-18T09:30:00;97924.44;;;20.47;74.17
20710;BME280;10516;51.518;9.864;2023-09-18T09:32:29;97915.63;;;20.38;73.81
20710;BME280;10516;51.518;9.864;2023-09-18T09:34:57;97925.91;;;20.44;74.32
20710;BME280;10516;51.518;9.864;2023-09-18T09:37:30;97926.31;;;20.34;74.40
20710;BME280;10516;51.518;9.864;2023-09-18T09:39:56;97926.13;;;20.39;74.24
20710;BME280;10516;51.518;9.864;2023-09-18T09:42:21;97910.75;;;20.43;73.84
20710;BME280;10516;51.518;9.864;2023-09-18T09:45:13;97910.78;;;20.55;73.85
20710;BME280;10516;51.518;9.864;2023-09-18T09:47:39;97908.81;;;20.76;73.81
20710;BME280;10516;51.518;9.864;2023-09-18T09:50:15;97931.16;;;20.73;73.35
20710;BME280;10516;51.518;9.864;2023-09-18T09:52:47;97925.06;;;20.76;73.40
20710;BME280;10516;51.518;9.864;2023-09-18T09:55:43;97933.31;;;20.68;73.39
20710;BME280;10516;51.518;9.864;2023-09-18T09:58:09;97933.88;;;20.61;73.24
20710;BME280;10516;51.518;9.864;2023-09-18T10:00:41;97932.31;;;20.72;72.82
20710;BME280;10516;51.518;9.864;2023-09-18T10:03:10;97907.66;;;20.65;73.62
20710;BME280;10516;51.518;9.864;2023-09-18T10:05:38;97926.66;;;20.77;73.43
20710;BME280;10516;51.518;9.864;2023-09-18T10:08:07;97934.56;;;20.82;73.20
20710;BME280;10516;51.518;9.864;2023-09-18T10:10:37;97935.63;;;20.90;73.47
20710;BME280;10516;51.518;9.864;2023-09-18T10:13:09;97942.06;;;20.98;72.83
20710;BME280;10516;51.518;9.864;2023-09-18T10:15:36;97933.84;;;21.06;72.66
20710;BME280;10516;51.518;9.864;2023-09-18T10:18:05;97939.38;;;21.10;72.50
20710;BME280;10516;51.518;9.864;2023-09-18T10:20:37;97951.38;;;21.21;72.25
20710;BME280;10516;51.518;9.864;2023-09-18T10:23:13;97942.53;;;21.24;72.68
20710;BME280;10516;51.518;9.864;2023-09-18T10:25:45;97939.59;;;21.17;72.63
20710;BME280;10516;51.518;9.864;2023-09-18T10:28:17;97951.59;;;21.16;72.43
20710;BME280;10516;51.518;9.864;2023-09-18T10:30:44;97943.09;;;21.17;72.14
20710;BME280;10516;51.518;9.864;2023-09-18T10:33:09;97958.16;;;21.15;72.37
20710;BME280;10516;51.518;9.864;2023-09-18T10:35:35;97951.81;;;21.11;72.33
20710;BME280;10516;51.518;9.864;2023-09-18T10:38:02;97975.22;;;21.15;72.39
20710;BME280;10516;51.518;9.864;2023-09-18T10:40:29;97948.38;;;21.02;72.56
20710;BME280;10516;51.518;9.864;2023-09-18T10:42:57;97975.22;;;21.15;72.21
20710;BME280;10516;51.518;9.864;2023-09-18T10:45:23;97996.94;;;21.15;72.45
20710;BME280;10516;51.518;9.864;2023-09-18T10:47:50;97972.72;;;21.10;72.47
20710;BME280;10516;51.518;9.864;2023-09-18T10:50:27;97958.25;;;21.06;72.51
20710;BME280;10516;51.518;9.864;2023-09-18T10:52:52;97982.72;;;21.18;72.47
20710;BME280;10516;51.518;9.864;2023-09-18T10:55:18;97978.63;;;21.24;72.34
20710;BME280;10516;51.518;9.864;2023-09-18T10:57:54;97966.06;;;21.08;72.52
20710;BME280;10516;51.518;9.864;2023-09-18T11:00:21;97968.88;;;21.23;72.41
20710;BME280;10516;51.518;9.864;2023-09-18T11:02:54;97968.09;;;21.11;72.51
20710;BME280;10516;51.518;9.864;2023-09-18T11:05:32;97977.94;;;21.15;72.63
20710;BME280;10516;51.518;9.864;2023-09-18T11:11:07;97965.94;;;21.04;72.69
20710;BME280;10516;51.518;9.864;2023-09-18T11:13:52;97975.56;;;21.14;72.74
20710;BME280;10516;51.518;9.864;2023-09-18T11:19:12;97978.28;;;21.26;72.61
20710;BME280;10516;51.518;9.864;2023-09-18T11:21:42;97976.25;;;21.23;72.35
20710;BME280;10516;51.518;9.864;2023-09-18T11:26:42;97965.84;;;21.13;72.63
20710;BME280;10516;51.518;9.864;2023-09-18T11:29:09;97982.81;;;21.22;72.51
20710;BME280;10516;51.518;9.864;2023-09-18T11:31:55;97973.31;;;21.16;72.96
20710;BME280;10516;51.518;9.864;2023-09-18T11:34:27;97997.19;;;21.22;73.21
20710;BME280;10516;51.518;9.864;2023-09-18T11:36:57;97983.72;;;21.26;73.18
20710;BME280;10516;51.518;9.864;2023-09-18T11:39:52;97979.44;;;21.25;72.83
20710;BME280;10516;51.518;9.864;2023-09-18T11:42:20;97986.22;;;21.31;72.67
20710;BME280;10516;51.518;9.864;2023-09-18T11:44:49;97998.06;;;21.38;73.01
20710;BME280;10516;51.518;9.864;2023-09-18T11:47:19;97993.22;;;21.44;73.04
20710;BME280;10516;51.518;9.864;2023-09-18T11:49:52;98000.56;;;21.43;72.71
20710;BME280;10516;51.518;9.864;2023-09-18T11:52:28;98000.91;;;21.42;72.81
20710;BME280;10516;51.518;9.864;2023-09-18T11:54:56;98001.81;;;21.46;72.46
20710;BME280;10516;51.518;9.864;2023-09-18T11:57:22;97930.78;;;21.20;72.58
20710;BME280;10516;51.518;9.864;2023-09-18T11:59:48;97971.16;;;21.45;72.26
20710;BME280;10516;51.518;9.864;2023-09-18T12:02:28;97974.00;;;21.49;72.29
20710;BME280;10516;51.518;9.864;2023-09-18T12:05:05;97969.69;;;21.48;71.71
20710;BME280;10516;51.518;9.864;2023-09-18T12:07:34;97967.78;;;21.48;72.00
20710;BME280;10516;51.518;9.864;2023-09-18T12:10:00;97949.44;;;21.45;72.03
20710;BME280;10516;51.518;9.864;2023-09-18T12:12:30;97990.41;;;21.52;71.82
20710;BME280;10516;51.518;9.864;2023-09-18T12:14:56;97979.88;;;21.39;71.78
20710;BME280;10516;51.518;9.864;2023-09-18T12:17:22;97964.28;;;21.36;71.62
20710;BME280;10516;51.518;9.864;2023-09-18T12:19:54;97956.25;;;21.27;72.33
20710;BME280;10516;51.518;9.864;2023-09-18T12:22:27;97972.28;;;21.32;72.18
20710;BME280;10516;51.518;9.864;2023-09-18T12:24:52;97976.47;;;21.18;72.14
20710;BME280;10516;51.518;9.864;2023-09-18T12:27:18;97990.84;;;21.18;72.00
20710;BME280;10516;51.518;9.864;2023-09-18T12:29:44;97977.59;;;21.17;72.00
20710;BME280;10516;51.518;9.864;2023-09-18T12:32:10;97968.34;;;21.18;71.66
20710;BME280;10516;51.518;9.864;2023-09-18T12:34:40;97980.34;;;21.29;71.99
20710;BME280;10516;51.518;9.864;2023-09-18T12:37:08;97966.06;;;21.20;72.15
20710;BME280;10516;51.518;9.864;2023-09-18T12:39:36;97953.41;;;21.12;71.71
20710;BME280;10516;51.518;9.864;2023-09-18T12:42:01;97967.66;;;21.21;72.05
20710;BME280;10516;51.518;9.864;2023-09-18T12:44:28;97975.00;;;21.08;72.25
20710;BME280;10516;51.518;9.864;2023-09-18T12:46:54;97963.56;;;21.15;72.21
20710;BME280;10516;51.518;9.864;2023-09-18T12:49:23;97965.41;;;21.23;72.04
20710;BME280;10516;51.518;9.864;2023-09-18T12:52:01;97955.13;;;21.16;72.15
20710;BME280;10516;51.518;9.864;2023-09-18T12:54:42;97958.47;;;21.25;71.89
20710;BME280;10516;51.518;9.864;2023-09-18T12:57:09;97944.56;;;21.15;71.90
20710;BME280;10516;51.518;9.864;2023-09-18T12:59:36;97932.44;;;21.00;71.73
20710;BME280;10516;51.518;9.864;2023-09-18T13:02:04;97953.97;;;21.05;71.68
20710;BME280;10516;51.518;9.864;2023-09-18T13:04:31;97951.00;;;21.10;71.25
20710;BME280;10516;51.518;9.864;2023-09-18T13:07:08;97946.81;;;21.01;71.50
20710;BME280;10516;51.518;9.864;2023-09-18T13:09:34;97946.16;;;21.04;71.67
20710;BME280;10516;51.518;9.864;2023-09-18T13:12:00;97957.22;;;20.99;71.78
20710;BME280;10516;51.518;9.864;2023-09-18T13:14:26;97954.81;;;20.85;71.96
20710;BME280;10516;51.518;9.864;2023-09-18T13:16:52;97920.41;;;20.65;72.01